createdAt,value
2018-12-07T00:00:34.332Z,10.80
2018-12-07T00:03:02.879Z,10.70
2018-12-07T00:05:31.758Z,10.80
2018-12-07T00:08:00.322Z,10.80
2018-12-07T00:10:29.234Z,10.80
2018-12-07T00:12:57.766Z,10.80
2018-12-07T00:15:26.322Z,10.80
2018-12-07T00:17:54.898Z,10.80
2018-12-07T00:20:23.434Z,10.80
2018-12-07T00:22:52.057Z,10.80
2018-12-07T00:25:21.027Z,10.80
2018-12-07T00:27:49.575Z,10.80
2018-12-07T00:30:18.128Z,10.80
2018-12-07T00:32:46.800Z,10.80
2018-12-07T00:35:15.411Z,10.80
2018-12-07T00:37:43.963Z,10.80
2018-12-07T00:40:12.600Z,10.80
2018-12-07T00:42:41.186Z,10.80
2018-12-07T00:45:09.744Z,10.80
2018-12-07T00:47:39.137Z,10.70
2018-12-07T00:50:07.802Z,10.80
2018-12-07T00:52:36.642Z,10.70
2018-12-07T00:55:07.449Z,10.70
2018-12-07T00:57:35.966Z,10.70
2018-12-07T01:00:04.913Z,10.70
2018-12-07T01:02:33.453Z,10.70
2018-12-07T01:05:01.991Z,10.70
2018-12-07T01:07:30.530Z,10.70
2018-12-07T01:09:59.062Z,10.70
2018-12-07T01:12:27.705Z,10.70
2018-12-07T01:14:56.259Z,10.70
2018-12-07T01:17:24.942Z,10.70
2018-12-07T01:19:53.779Z,10.70
2018-12-07T01:22:22.318Z,10.70
2018-12-07T01:24:52.113Z,10.80
2018-12-07T01:27:20.658Z,10.80
2018-12-07T01:29:49.193Z,10.80
2018-12-07T01:32:17.756Z,10.80
2018-12-07T01:34:46.350Z,10.80
2018-12-07T01:37:14.896Z,10.80
2018-12-07T01:39:43.696Z,10.80
2018-12-07T01:42:13.759Z,10.70
2018-12-07T01:44:42.471Z,10.80
2018-12-07T01:47:11.071Z,10.80
2018-12-07T01:49:39.606Z,10.70
2018-12-07T01:52:08.139Z,10.80
2018-12-07T01:54:36.711Z,10.70
2018-12-07T01:57:06.495Z,10.70
2018-12-07T01:59:35.310Z,10.70
2018-12-07T02:02:04.386Z,10.70
2018-12-07T02:04:33.258Z,10.80
2018-12-07T02:07:01.802Z,10.80
2018-12-07T02:09:30.500Z,10.70
2018-12-07T02:11:59.050Z,10.70
2018-12-07T02:14:27.567Z,10.70
2018-12-07T02:16:56.129Z,10.70
2018-12-07T02:19:24.799Z,10.70
2018-12-07T02:21:53.474Z,10.70
2018-12-07T02:24:22.334Z,10.70
2018-12-07T02:26:50.894Z,10.70
2018-12-07T02:29:19.648Z,10.80
2018-12-07T02:31:48.215Z,10.70
2018-12-07T02:34:16.758Z,10.80
2018-12-07T02:36:45.315Z,10.80
2018-12-07T02:39:13.888Z,10.80
2018-12-07T02:41:42.550Z,10.80
2018-12-07T02:44:11.125Z,10.80
2018-12-07T02:46:39.693Z,10.80
2018-12-07T02:49:08.251Z,10.80
2018-12-07T02:51:36.785Z,10.80
2018-12-07T02:54:05.366Z,10.70
2018-12-07T02:56:33.900Z,10.70
2018-12-07T02:59:02.422Z,10.80
2018-12-07T03:01:30.959Z,10.70
2018-12-07T03:03:59.517Z,10.70
2018-12-07T03:06:28.055Z,10.70
2018-12-07T03:08:56.611Z,10.70
2018-12-07T03:11:25.143Z,10.70
2018-12-07T03:13:53.766Z,10.70
2018-12-07T03:16:22.412Z,10.70
2018-12-07T03:18:50.987Z,10.70
2018-12-07T03:21:19.544Z,10.70
2018-12-07T03:23:48.471Z,10.70
2018-12-07T03:26:17.002Z,10.70
2018-12-07T03:28:45.832Z,10.70
2018-12-07T03:31:14.403Z,10.70
2018-12-07T03:33:42.934Z,10.70
2018-12-07T03:36:11.488Z,10.70
2018-12-07T03:38:40.370Z,10.70
2018-12-07T03:41:08.971Z,10.70
2018-12-07T03:43:37.504Z,10.70
2018-12-07T03:46:06.077Z,10.70
2018-12-07T03:48:34.640Z,10.80
2018-12-07T03:51:03.209Z,10.80
2018-12-07T03:53:31.792Z,10.80
2018-12-07T03:56:01.440Z,10.80
2018-12-07T03:58:29.983Z,10.80
2018-12-07T04:00:58.762Z,10.80
2018-12-07T04:03:27.295Z,10.80
2018-12-07T04:05:55.859Z,10.80
2018-12-07T04:08:24.410Z,10.90
2018-12-07T04:10:52.927Z,10.80
2018-12-07T04:13:21.547Z,10.90
2018-12-07T04:15:50.235Z,10.90
2018-12-07T04:18:18.780Z,10.80
2018-12-07T04:20:47.439Z,10.90
2018-12-07T04:23:15.997Z,10.80
2018-12-07T04:25:44.549Z,10.80
2018-12-07T04:28:13.084Z,10.90
2018-12-07T04:30:41.626Z,10.90
2018-12-07T04:33:10.163Z,10.90
2018-12-07T04:35:38.731Z,10.90
2018-12-07T04:38:07.579Z,10.80
2018-12-07T04:40:36.178Z,10.80
2018-12-07T04:43:05.053Z,10.90
2018-12-07T04:45:33.780Z,10.80
2018-12-07T04:48:02.372Z,10.80
2018-12-07T04:50:30.928Z,10.90
2018-12-07T04:52:59.738Z,10.80
2018-12-07T04:55:28.316Z,10.80
2018-12-07T04:57:57.256Z,10.80
2018-12-07T05:00:25.973Z,10.90
2018-12-07T05:02:54.666Z,10.90
2018-12-07T05:05:23.300Z,10.90
2018-12-07T05:07:52.619Z,10.90
2018-12-07T05:10:21.628Z,10.90
2018-12-07T05:12:50.283Z,10.90
2018-12-07T05:15:19.397Z,10.90
2018-12-07T05:17:48.026Z,10.90
2018-12-07T05:20:17.599Z,10.90
2018-12-07T05:22:46.286Z,10.90
2018-12-07T05:25:15.183Z,10.90
2018-12-07T05:27:43.793Z,10.90
2018-12-07T05:30:12.362Z,10.90
2018-12-07T05:32:40.976Z,10.90
2018-12-07T05:35:09.550Z,11.00
2018-12-07T05:37:38.112Z,11.00
2018-12-07T05:40:06.917Z,11.00
2018-12-07T05:42:35.496Z,10.90
2018-12-07T05:45:04.730Z,11.00
2018-12-07T05:47:33.411Z,11.00
2018-12-07T05:50:08.494Z,11.00
2018-12-07T05:52:37.164Z,11.00
2018-12-07T05:55:05.990Z,11.00
2018-12-07T05:57:34.549Z,11.00
2018-12-07T06:00:04.389Z,11.00
2018-12-07T06:02:32.983Z,11.10
2018-12-07T06:05:01.541Z,11.00
2018-12-07T06:07:30.086Z,11.10
2018-12-07T06:09:58.859Z,11.10
2018-12-07T06:12:27.399Z,11.10
2018-12-07T06:14:55.922Z,11.10
2018-12-07T06:17:24.488Z,11.10
2018-12-07T06:19:53.034Z,11.10
2018-12-07T06:22:21.599Z,11.20
2018-12-07T06:24:50.174Z,11.20
2018-12-07T06:27:18.858Z,11.20
2018-12-07T06:29:47.403Z,11.20
2018-12-07T06:32:15.962Z,11.20
2018-12-07T06:34:44.505Z,11.20
2018-12-07T06:37:13.062Z,11.20
2018-12-07T06:39:41.616Z,11.20
2018-12-07T06:42:10.150Z,11.20
2018-12-07T06:44:38.678Z,11.20
2018-12-07T06:47:07.356Z,11.20
2018-12-07T06:49:35.912Z,11.20
2018-12-07T06:52:04.515Z,11.20
2018-12-07T06:54:33.046Z,11.20
2018-12-07T06:57:01.602Z,11.20
2018-12-07T06:59:30.118Z,11.20
2018-12-07T07:01:58.658Z,11.20
2018-12-07T07:04:27.191Z,11.20
2018-12-07T07:06:55.722Z,11.20
2018-12-07T07:09:24.250Z,11.20
2018-12-07T07:11:52.792Z,11.20
2018-12-07T07:14:21.330Z,11.20
2018-12-07T07:16:49.914Z,11.30
2018-12-07T07:19:18.459Z,11.30
2018-12-07T07:21:47.105Z,11.30
2018-12-07T07:24:15.686Z,11.30
2018-12-07T07:26:44.225Z,11.30
2018-12-07T07:29:12.774Z,11.30
2018-12-07T07:31:43.533Z,11.30
2018-12-07T07:34:11.895Z,11.40
2018-12-07T07:36:40.450Z,11.30
2018-12-07T07:39:08.973Z,11.40
2018-12-07T07:41:37.559Z,11.40
2018-12-07T07:44:06.119Z,11.40
2018-12-07T07:46:34.721Z,11.40
2018-12-07T07:49:03.270Z,11.40
2018-12-07T07:51:31.803Z,11.40
2018-12-07T07:54:00.335Z,11.40
2018-12-07T07:56:29.519Z,11.40
2018-12-07T07:58:58.081Z,11.50
2018-12-07T08:01:26.611Z,11.50
2018-12-07T08:03:55.194Z,11.50
2018-12-07T08:06:23.766Z,11.50
2018-12-07T08:08:53.046Z,11.50
2018-12-07T08:11:21.618Z,11.50
2018-12-07T08:13:50.198Z,11.50
2018-12-07T08:16:18.750Z,11.50
2018-12-07T08:18:47.298Z,11.50
2018-12-07T08:21:15.970Z,11.50
2018-12-07T08:23:44.522Z,11.50
2018-12-07T08:26:13.187Z,11.60
2018-12-07T08:28:41.787Z,11.50
2018-12-07T08:31:10.768Z,11.60
2018-12-07T08:33:39.316Z,11.60
2018-12-07T08:36:07.862Z,11.60
2018-12-07T08:38:36.728Z,11.60
2018-12-07T08:41:05.563Z,11.70
2018-12-07T08:43:34.131Z,11.70
2018-12-07T08:46:02.937Z,11.70
2018-12-07T08:48:31.490Z,11.70
2018-12-07T08:51:00.046Z,11.80
2018-12-07T08:53:28.877Z,11.80
2018-12-07T08:55:57.435Z,11.80
2018-12-07T08:58:25.994Z,11.90
2018-12-07T09:00:54.579Z,11.90
2018-12-07T09:03:23.119Z,11.90
2018-12-07T09:05:51.902Z,11.90
2018-12-07T09:08:20.690Z,12.00
2018-12-07T09:10:49.234Z,12.10
2018-12-07T09:13:17.751Z,12.20
2018-12-07T09:15:46.310Z,12.20
2018-12-07T09:18:14.843Z,12.30
2018-12-07T09:20:43.398Z,12.30
2018-12-07T09:23:11.962Z,12.40
2018-12-07T09:25:40.531Z,12.40
2018-12-07T09:28:09.083Z,12.40
2018-12-07T09:30:37.614Z,12.50
2018-12-07T09:33:06.191Z,12.60
2018-12-07T09:35:34.743Z,12.70
2018-12-07T09:38:03.289Z,12.80
2018-12-07T09:40:31.838Z,12.80
2018-12-07T09:43:00.386Z,12.80
2018-12-07T09:45:28.973Z,12.80
2018-12-07T09:47:57.498Z,12.80
2018-12-07T09:50:26.043Z,12.90
2018-12-07T09:52:54.589Z,12.90
2018-12-07T09:55:23.118Z,13.00
2018-12-07T09:57:51.678Z,13.10
2018-12-07T10:00:20.237Z,13.10
2018-12-07T10:02:49.158Z,13.20
2018-12-07T10:05:17.680Z,13.10
2018-12-07T10:07:46.442Z,13.10
2018-12-07T10:10:14.973Z,13.00
2018-12-07T10:12:43.542Z,13.00
2018-12-07T10:15:12.247Z,12.90
2018-12-07T10:17:40.779Z,12.90
2018-12-07T10:20:09.570Z,12.80
2018-12-07T10:22:38.099Z,12.80
2018-12-07T10:25:06.754Z,12.80
2018-12-07T10:27:35.302Z,12.80
2018-12-07T10:30:04.462Z,12.80
2018-12-07T10:32:33.031Z,12.80
2018-12-07T10:35:01.604Z,12.80
2018-12-07T10:37:30.124Z,12.90
2018-12-07T10:39:58.663Z,12.90
2018-12-07T10:42:27.214Z,12.90
2018-12-07T10:44:55.835Z,12.90
2018-12-07T10:47:24.373Z,12.90
2018-12-07T10:49:52.919Z,12.80
2018-12-07T10:52:21.853Z,12.80
2018-12-07T10:54:50.442Z,12.90
2018-12-07T10:57:18.990Z,12.90
2018-12-07T10:59:47.525Z,13.00
2018-12-07T11:02:21.408Z,13.00
2018-12-07T11:04:55.242Z,13.10
2018-12-07T11:07:29.159Z,13.10
2018-12-07T11:10:03.142Z,13.20
2018-12-07T11:14:43.686Z,13.20
2018-12-07T11:17:17.516Z,13.30
2018-12-07T11:19:51.338Z,13.30
2018-12-07T11:22:25.118Z,13.30
2018-12-07T11:24:58.906Z,13.30
2018-12-07T11:27:32.735Z,13.30
2018-12-07T11:30:06.535Z,13.30
2018-12-07T11:32:39.407Z,13.40
2018-12-07T11:35:10.903Z,13.40
2018-12-07T11:37:39.462Z,13.40
2018-12-07T11:40:08.511Z,13.40
2018-12-07T11:42:37.056Z,13.50
2018-12-07T11:45:05.722Z,13.50
2018-12-07T11:47:34.349Z,13.50
2018-12-07T11:50:03.978Z,13.50
2018-12-07T11:52:32.571Z,13.60
2018-12-07T11:55:01.130Z,13.60
2018-12-07T11:57:29.665Z,13.60
2018-12-07T11:59:58.312Z,13.60
2018-12-07T12:02:26.894Z,13.60
2018-12-07T12:04:55.506Z,13.60
2018-12-07T12:07:24.115Z,13.60
2018-12-07T12:09:52.663Z,13.60
2018-12-07T12:12:21.423Z,13.60
2018-12-07T12:14:49.988Z,13.60
2018-12-07T12:17:18.548Z,13.60
2018-12-07T12:19:47.105Z,13.60
2018-12-07T12:22:15.651Z,13.60
2018-12-07T12:24:44.202Z,13.60
2018-12-07T12:27:12.734Z,13.60
2018-12-07T12:29:41.389Z,13.70
2018-12-07T12:32:09.988Z,13.70
2018-12-07T12:34:38.598Z,13.70
2018-12-07T12:37:07.171Z,13.80
2018-12-07T12:39:35.838Z,13.80
2018-12-07T12:42:04.374Z,13.80
2018-12-07T12:44:32.945Z,13.90
2018-12-07T12:47:01.495Z,13.90
2018-12-07T12:49:30.027Z,14.00
2018-12-07T12:51:58.561Z,14.00
2018-12-07T12:54:27.106Z,13.90
2018-12-07T12:56:55.885Z,13.80
2018-12-07T12:59:24.442Z,13.80
2018-12-07T13:01:53.035Z,13.80
2018-12-07T13:04:21.593Z,13.70
2018-12-07T13:06:50.139Z,13.70
2018-12-07T13:09:18.695Z,13.70
2018-12-07T13:11:48.151Z,13.70
2018-12-07T13:14:16.674Z,13.70
2018-12-07T13:16:45.223Z,13.70
2018-12-07T13:19:13.759Z,13.70
2018-12-07T13:21:42.299Z,13.70
2018-12-07T13:24:11.067Z,13.70
2018-12-07T13:26:39.698Z,13.60
2018-12-07T13:29:08.223Z,13.60
2018-12-07T13:31:36.806Z,13.70
2018-12-07T13:34:05.369Z,13.70
2018-12-07T13:36:33.946Z,13.60
2018-12-07T13:39:03.461Z,13.60
2018-12-07T13:41:32.029Z,13.60
2018-12-07T13:44:00.816Z,13.60
2018-12-07T13:46:29.423Z,13.60
2018-12-07T13:48:58.099Z,13.60
2018-12-07T13:51:26.878Z,13.60
2018-12-07T13:53:55.559Z,13.60
2018-12-07T13:56:24.690Z,13.60
2018-12-07T13:58:53.458Z,13.60
2018-12-07T14:01:22.297Z,13.50
2018-12-07T14:03:51.012Z,13.40
2018-12-07T14:06:19.819Z,13.40
2018-12-07T14:08:48.736Z,13.40
2018-12-07T14:11:17.647Z,13.30
2018-12-07T14:13:46.342Z,13.30
2018-12-07T14:16:15.140Z,13.30
2018-12-07T14:18:43.899Z,13.20
2018-12-07T14:21:12.604Z,13.20
2018-12-07T14:23:41.350Z,13.10
2018-12-07T14:26:10.346Z,13.00
2018-12-07T14:28:39.037Z,12.90
2018-12-07T14:31:07.663Z,12.80
2018-12-07T14:33:36.485Z,12.70
2018-12-07T14:36:05.663Z,12.60
2018-12-07T14:38:34.378Z,12.50
2018-12-07T14:41:03.174Z,12.50
2018-12-07T14:43:31.944Z,12.50
2018-12-07T14:46:00.574Z,12.40
2018-12-07T14:48:29.232Z,12.40
2018-12-07T14:50:57.781Z,12.30
2018-12-07T14:53:26.386Z,12.30
2018-12-07T14:55:55.893Z,12.30
2018-12-07T14:58:24.530Z,12.20
2018-12-07T15:00:53.209Z,12.20
2018-12-07T15:03:22.225Z,12.30
2018-12-07T15:05:50.965Z,12.20
2018-12-07T15:08:19.773Z,12.20
2018-12-07T15:10:48.448Z,12.10
2018-12-07T15:13:17.353Z,12.10
2018-12-07T15:15:46.283Z,12.10
2018-12-07T15:18:14.922Z,12.10
2018-12-07T15:20:43.768Z,12.00
2018-12-07T15:23:12.317Z,12.00
2018-12-07T15:25:41.003Z,12.00
2018-12-07T15:28:09.717Z,12.00
2018-12-07T15:30:38.636Z,12.00
2018-12-07T15:33:07.512Z,11.90
2018-12-07T15:35:36.315Z,11.80
2018-12-07T15:38:05.152Z,11.80
2018-12-07T15:40:33.942Z,11.70
2018-12-07T15:43:02.895Z,11.70
2018-12-07T15:45:32.064Z,11.60
2018-12-07T15:48:01.108Z,11.50
2018-12-07T15:50:29.956Z,11.40
2018-12-07T15:52:58.617Z,11.30
2018-12-07T15:55:27.174Z,11.30
2018-12-07T15:57:55.885Z,11.20
2018-12-07T16:00:24.962Z,11.20
2018-12-07T16:02:53.740Z,11.10
2018-12-07T16:05:22.455Z,11.10
2018-12-07T16:07:51.252Z,11.00
2018-12-07T16:10:20.093Z,11.00
2018-12-07T16:12:48.990Z,11.00
2018-12-07T16:15:17.700Z,10.90
2018-12-07T16:17:48.227Z,10.90
2018-12-07T16:20:18.710Z,10.90
2018-12-07T16:22:47.373Z,10.90
2018-12-07T16:25:16.383Z,10.90
2018-12-07T16:27:45.203Z,10.80
2018-12-07T16:30:13.784Z,10.80
2018-12-07T16:32:42.569Z,10.80
2018-12-07T16:35:11.355Z,10.70
2018-12-07T16:37:39.983Z,10.70
2018-12-07T16:40:09.498Z,10.60
2018-12-07T16:42:38.119Z,10.50
2018-12-07T16:45:06.944Z,10.50
2018-12-07T16:47:35.791Z,10.40
2018-12-07T16:50:05.642Z,10.40
2018-12-07T16:52:34.386Z,10.40
2018-12-07T16:55:02.993Z,10.40
2018-12-07T16:57:31.841Z,10.30
2018-12-07T17:00:00.662Z,10.30
2018-12-07T17:02:29.460Z,10.30
2018-12-07T17:04:58.195Z,10.30
2018-12-07T17:07:26.860Z,10.30
2018-12-07T17:09:55.720Z,10.20
2018-12-07T17:12:24.864Z,10.20
2018-12-07T17:14:53.754Z,10.20
2018-12-07T17:17:22.422Z,10.20
2018-12-07T17:19:51.138Z,10.20
2018-12-07T17:22:20.006Z,10.20
2018-12-07T17:24:49.225Z,10.10
2018-12-07T17:27:18.042Z,10.10
2018-12-07T17:29:46.964Z,10.10
2018-12-07T17:32:15.866Z,10.10
2018-12-07T17:34:44.473Z,10.10
2018-12-07T17:37:13.070Z,10.10
2018-12-07T17:39:41.757Z,10.20
2018-12-07T17:42:10.381Z,10.20
2018-12-07T17:44:39.166Z,10.20
2018-12-07T17:47:07.883Z,10.30
2018-12-07T17:49:36.749Z,10.30
2018-12-07T17:52:06.019Z,10.30
2018-12-07T17:54:34.947Z,10.30
2018-12-07T17:57:03.794Z,10.30
2018-12-07T17:59:32.629Z,10.20
2018-12-07T18:02:01.309Z,10.20
2018-12-07T18:04:30.680Z,10.20
2018-12-07T18:06:59.475Z,10.20
2018-12-07T18:09:28.197Z,10.10
2018-12-07T18:11:57.193Z,10.20
2018-12-07T18:14:27.001Z,10.20
2018-12-07T18:16:55.945Z,10.30
2018-12-07T18:19:24.638Z,10.30
2018-12-07T18:21:53.663Z,10.30
2018-12-07T18:24:23.376Z,10.30
2018-12-07T18:26:52.251Z,10.40
2018-12-07T18:29:21.006Z,10.40
2018-12-07T18:31:49.700Z,10.40
2018-12-07T18:34:18.400Z,10.40
2018-12-07T18:36:47.109Z,10.40
2018-12-07T18:39:16.509Z,10.40
2018-12-07T18:41:45.367Z,10.40
2018-12-07T18:44:13.996Z,10.40
2018-12-07T18:46:43.319Z,10.40
2018-12-07T18:49:12.244Z,10.40
2018-12-07T18:51:41.125Z,10.40
2018-12-07T18:54:10.328Z,10.40
2018-12-07T18:56:39.145Z,10.40
2018-12-07T18:59:08.205Z,10.40
2018-12-07T19:01:36.850Z,10.40
2018-12-07T19:04:05.993Z,10.30
2018-12-07T19:06:35.381Z,10.30
2018-12-07T19:09:07.196Z,10.30
2018-12-07T19:11:36.236Z,10.30
2018-12-07T19:14:05.108Z,10.30
2018-12-07T19:16:35.779Z,10.30
2018-12-07T19:19:05.519Z,10.30
2018-12-07T19:21:34.238Z,10.30
2018-12-07T19:24:03.160Z,10.30
2018-12-07T19:26:32.420Z,10.30
2018-12-07T19:29:01.904Z,10.30
2018-12-07T19:31:31.379Z,10.40
2018-12-07T19:34:00.690Z,10.40
2018-12-07T19:36:29.728Z,10.40
2018-12-07T19:38:58.578Z,10.40
2018-12-07T19:41:27.762Z,10.50
2018-12-07T19:43:56.414Z,10.50
2018-12-07T19:46:25.163Z,10.50
2018-12-07T19:48:53.854Z,10.50
2018-12-07T19:51:22.525Z,10.50
2018-12-07T19:53:51.257Z,10.60
2018-12-07T19:56:20.136Z,10.60
2018-12-07T19:58:48.782Z,10.60
2018-12-07T20:01:17.370Z,10.60
2018-12-07T20:03:46.206Z,10.60
2018-12-07T20:06:14.943Z,10.60
2018-12-07T20:08:44.115Z,10.50
2018-12-07T20:11:12.773Z,10.50
2018-12-07T20:13:42.313Z,10.50
2018-12-07T20:16:11.154Z,10.50
2018-12-07T20:18:39.834Z,10.50
2018-12-07T20:21:08.653Z,10.50
2018-12-07T20:23:37.440Z,10.40
2018-12-07T20:26:06.058Z,10.40
2018-12-07T20:28:34.605Z,10.40
2018-12-07T20:31:03.146Z,10.40
2018-12-07T20:33:31.874Z,10.40
2018-12-07T20:36:00.677Z,10.30
2018-12-07T20:38:29.556Z,10.30
2018-12-07T20:40:58.163Z,10.30
2018-12-07T20:43:26.870Z,10.30
2018-12-07T20:45:55.625Z,10.30
2018-12-07T20:48:24.283Z,10.30
2018-12-07T20:50:52.966Z,10.30
2018-12-07T20:53:21.762Z,10.30
2018-12-07T20:55:50.454Z,10.30
2018-12-07T20:58:19.305Z,10.30
2018-12-07T21:00:48.007Z,10.30
2018-12-07T21:03:16.746Z,10.30
2018-12-07T21:09:34.190Z,10.30
2018-12-07T21:12:37.992Z,10.40
2018-12-07T21:15:06.945Z,10.40
2018-12-07T21:17:37.595Z,10.40
2018-12-07T21:20:26.771Z,10.40
2018-12-07T21:22:55.370Z,10.40
2018-12-07T21:25:24.410Z,10.40
2018-12-07T21:27:53.096Z,10.40
2018-12-07T21:30:50.847Z,10.40
2018-12-07T21:33:27.358Z,10.40
2018-12-07T21:36:28.512Z,10.30
2018-12-07T21:38:57.352Z,10.30
2018-12-07T21:41:26.272Z,10.40
2018-12-07T21:43:54.862Z,10.40
2018-12-07T21:46:23.886Z,10.40
2018-12-07T21:48:52.694Z,10.40
2018-12-07T21:51:43.933Z,10.40
2018-12-07T21:54:13.140Z,10.40
2018-12-07T21:56:41.908Z,10.50
2018-12-07T21:59:10.528Z,10.50
2018-12-07T22:01:39.574Z,10.60
2018-12-07T22:04:08.294Z,10.60
2018-12-07T22:06:36.981Z,10.60
2018-12-07T22:09:07.192Z,10.60
2018-12-07T22:11:35.870Z,10.60
2018-12-07T22:14:04.862Z,10.60
2018-12-07T22:16:33.720Z,10.60
2018-12-07T22:19:02.706Z,10.50
2018-12-07T22:21:31.723Z,10.50
2018-12-07T22:24:07.374Z,10.40
2018-12-07T22:26:36.079Z,10.20
2018-12-07T22:29:05.111Z,10.00
2018-12-07T22:31:34.160Z,9.70
2018-12-07T22:34:03.161Z,9.50
2018-12-07T22:36:32.353Z,9.40
2018-12-07T22:39:01.449Z,9.30
2018-12-07T22:41:30.434Z,9.30
2018-12-07T22:43:59.120Z,9.20
2018-12-07T22:46:27.738Z,9.20
2018-12-07T22:48:56.473Z,9.10
2018-12-07T22:51:25.209Z,9.10
2018-12-07T22:53:54.190Z,9.10
2018-12-07T22:56:23.179Z,9.00
2018-12-07T22:58:51.941Z,9.00
2018-12-07T23:01:20.794Z,8.90
2018-12-07T23:03:49.527Z,8.90
2018-12-07T23:06:18.587Z,8.80
2018-12-07T23:08:47.736Z,8.80
2018-12-07T23:11:16.626Z,8.70
2018-12-07T23:13:45.703Z,8.60
2018-12-07T23:16:14.363Z,8.60
2018-12-07T23:18:43.605Z,8.60
2018-12-07T23:21:12.332Z,8.50
2018-12-07T23:23:41.499Z,8.50
2018-12-07T23:26:10.323Z,8.40
2018-12-07T23:28:39.023Z,8.30
2018-12-07T23:31:09.004Z,8.30
2018-12-07T23:33:37.774Z,8.20
2018-12-07T23:36:06.335Z,8.10
2018-12-07T23:38:34.876Z,8.10
2018-12-07T23:41:03.448Z,8.10
2018-12-07T23:43:32.119Z,8.10
2018-12-07T23:46:00.676Z,8.10
2018-12-07T23:48:29.258Z,8.10
2018-12-07T23:50:57.826Z,8.10
2018-12-07T23:53:26.734Z,8.10
2018-12-07T23:55:55.289Z,8.10
2018-12-07T23:58:23.849Z,8.10
